Time;durP1;ratioP1;P1;durP2;ratioP2;P2;SDS_P1;SDS_P2;PMS_P1;PMS_P2;Temp;Humidity;BMP_temperature;BMP_pressure;BME280_temperature;BME280_humidity;BME280_pressure;Samples;Min_cycle;Max_cycle;Signal;HPM_P1;HPM_P2
2024/01/16 00:03:55;;;;;;;10.25;3.90;;;;;;;;;;8211841;28;20958;-60
2024/01/16 00:07:55;;;;;;;4.28;3.13;;;;;;;;;;8211950;28;20786;-59
2024/01/16 00:11:55;;;;;;;10.20;3.88;;;;;;;;;;8212556;28;20290;-58
2024/01/16 00:15:58;;;;;;;9.57;3.63;;;;;;;;;;8212520;28;21714;-59
2024/01/16 00:20:00;;;;;;;5.90;3.45;;;;;;;;;;8212748;28;20833;-59
2024/01/16 00:24:00;;;;;;;6.43;4.20;;;;;;;;;;8213570;28;20013;-58
2024/01/16 00:28:01;;;;;;;7.35;4.07;;;;;;;;;;8209906;28;20080;-59
2024/01/16 00:32:01;;;;;;;4.93;3.83;;;;;;;;;;8209208;28;20801;-59
2024/01/16 00:36:01;;;;;;;6.25;4.30;;;;;;;;;;8215121;28;20034;-58
2024/01/16 00:40:04;;;;;;;5.30;3.80;;;;;;;;;;8211673;28;20023;-59
2024/01/16 00:44:05;;;;;;;7.18;4.55;;;;;;;;;;8224805;28;20042;-60
2024/01/16 00:48:05;;;;;;;11.48;4.45;;;;;;;;;;8223931;28;20038;-60
2024/01/16 00:52:06;;;;;;;11.82;4.40;;;;;;;;;;8222187;28;20197;-59
2024/01/16 00:56:06;;;;;;;13.23;4.03;;;;;;;;;;8213468;28;20561;-59
2024/01/16 01:00:07;;;;;;;5.95;4.05;;;;;;;;;;8214159;28;20026;-59
2024/01/16 01:04:07;;;;;;;9.30;4.32;;;;;;;;;;8223943;28;20021;-60
2024/01/16 01:08:08;;;;;;;5.85;4.38;;;;;;;;;;8228409;28;20025;-58
2024/01/16 01:12:08;;;;;;;7.10;4.15;;;;;;;;;;8229731;28;20049;-60
2024/01/16 01:16:08;;;;;;;8.05;4.35;;;;;;;;;;8228802;28;20033;-60
2024/01/16 01:20:08;;;;;;;8.68;3.85;;;;;;;;;;8231230;28;20022;-59
2024/01/16 01:24:09;;;;;;;7.65;4.45;;;;;;;;;;8231028;28;20663;-59
2024/01/16 01:28:11;;;;;;;15.00;5.60;;;;;;;;;;8231092;28;20347;-59
2024/01/16 01:32:11;;;;;;;8.68;4.30;;;;;;;;;;8224017;28;20026;-59
2024/01/16 01:36:11;;;;;;;9.85;3.72;;;;;;;;;;8234029;28;20099;-60
2024/01/16 01:40:12;;;;;;;11.25;5.07;;;;;;;;;;8228673;28;20409;-59
2024/01/16 01:44:15;;;;;;;8.15;4.40;;;;;;;;;;8228143;28;20068;-59
2024/01/16 01:48:16;;;;;;;9.90;4.57;;;;;;;;;;8227858;28;20472;-59
2024/01/16 01:52:16;;;;;;;10.50;3.75;;;;;;;;;;8226657;28;20466;-59
2024/01/16 01:56:17;;;;;;;8.80;4.60;;;;;;;;;;8216779;28;20062;-59
2024/01/16 02:00:18;;;;;;;7.97;4.38;;;;;;;;;;8211070;28;20023;-59
2024/01/16 02:04:19;;;;;;;10.70;4.40;;;;;;;;;;8216223;28;20026;-59
2024/01/16 02:08:19;;;;;;;5.90;4.00;;;;;;;;;;8213830;28;20030;-59
2024/01/16 02:12:19;;;;;;;7.03;3.97;;;;;;;;;;8220314;28;20609;-60
2024/01/16 02:16:20;;;;;;;11.75;3.95;;;;;;;;;;8226838;28;20910;-58
2024/01/16 02:20:20;;;;;;;14.15;5.15;;;;;;;;;;8223892;28;20029;-59
2024/01/16 02:24:21;;;;;;;5.47;3.45;;;;;;;;;;8228796;28;20040;-60
2024/01/16 02:28:21;;;;;;;5.00;3.83;;;;;;;;;;8229121;28;20040;-60
2024/01/16 02:32:21;;;;;;;10.57;4.43;;;;;;;;;;8228318;28;20584;-59
2024/01/16 02:36:22;;;;;;;11.65;4.90;;;;;;;;;;8223611;28;20022;-60
2024/01/16 02:40:22;;;;;;;5.95;4.00;;;;;;;;;;8226370;28;20037;-60
2024/01/16 02:44:22;;;;;;;14.50;4.60;;;;;;;;;;8228076;28;20026;-60
2024/01/16 02:48:22;;;;;;;9.13;4.15;;;;;;;;;;8223016;28;20503;-60
2024/01/16 02:52:22;;;;;;;8.45;4.13;;;;;;;;;;8226969;28;20598;-60
2024/01/16 02:56:22;;;;;;;8.15;3.95;;;;;;;;;;8228148;28;20026;-60
2024/01/16 03:00:23;;;;;;;7.38;3.75;;;;;;;;;;8225750;28;20030;-59
2024/01/16 03:04:23;;;;;;;5.95;3.60;;;;;;;;;;8223590;28;20030;-60
2024/01/16 03:08:23;;;;;;;6.97;4.00;;;;;;;;;;8213894;28;20542;-59
2024/01/16 03:12:23;;;;;;;9.60;4.40;;;;;;;;;;8215544;28;20038;-59
2024/01/16 03:16:24;;;;;;;8.10;3.70;;;;;;;;;;8223378;28;20049;-60
2024/01/16 03:20:24;;;;;;;8.90;4.10;;;;;;;;;;8225021;28;20120;-60
2024/01/16 03:24:24;;;;;;;7.68;4.68;;;;;;;;;;8221785;28;20585;-58
2024/01/16 03:28:25;;;;;;;6.25;4.00;;;;;;;;;;8210625;28;20760;-60
2024/01/16 03:32:25;;;;;;;12.90;4.63;;;;;;;;;;8212765;28;20628;-59
2024/01/16 03:36:25;;;;;;;8.00;3.83;;;;;;;;;;8210929;28;20034;-59
2024/01/16 03:40:25;;;;;;;9.38;4.07;;;;;;;;;;8210899;28;20466;-61
2024/01/16 03:44:26;;;;;;;6.43;3.70;;;;;;;;;;8211790;28;20053;-59
2024/01/16 03:48:27;;;;;;;9.18;3.97;;;;;;;;;;8208676;28;21290;-59
2024/01/16 03:52:27;;;;;;;11.55;4.70;;;;;;;;;;8213192;28;20685;-60
2024/01/16 03:56:27;;;;;;;7.35;4.07;;;;;;;;;;8210002;28;20060;-59
2024/01/16 04:00:27;;;;;;;11.63;4.72;;;;;;;;;;8212993;28;20120;-60
2024/01/16 04:04:27;;;;;;;6.95;4.10;;;;;;;;;;8211905;28;20076;-60
2024/01/16 04:08:28;;;;;;;7.80;4.30;;;;;;;;;;8209375;28;20395;-60
2024/01/16 04:12:28;;;;;;;8.00;3.90;;;;;;;;;;8212789;28;20369;-60
2024/01/16 04:16:28;;;;;;;10.55;4.60;;;;;;;;;;8209769;28;20410;-60
2024/01/16 04:20:28;;;;;;;7.07;4.05;;;;;;;;;;8212467;28;20399;-60
2024/01/16 04:24:28;;;;;;;7.32;4.13;;;;;;;;;;8211061;28;20140;-59
2024/01/16 04:28:29;;;;;;;11.13;4.93;;;;;;;;;;8211147;28;20022;-61
2024/01/16 04:32:29;;;;;;;10.43;4.15;;;;;;;;;;8210894;28;20869;-60
2024/01/16 04:36:29;;;;;;;6.18;4.10;;;;;;;;;;8213255;28;20030;-60
2024/01/16 04:40:29;;;;;;;9.27;4.03;;;;;;;;;;8219333;28;20026;-59
2024/01/16 04:44:29;;;;;;;10.07;4.05;;;;;;;;;;8219886;28;20049;-59
2024/01/16 04:48:29;;;;;;;11.82;4.75;;;;;;;;;;8223208;28;20091;-59
2024/01/16 04:52:30;;;;;;;10.07;3.92;;;;;;;;;;8218221;28;20425;-59
2024/01/16 04:56:30;;;;;;;7.20;4.20;;;;;;;;;;8220704;28;20115;-59
2024/01/16 05:00:30;;;;;;;7.57;3.90;;;;;;;;;;8215219;28;20945;-60
2024/01/16 05:04:30;;;;;;;8.98;4.15;;;;;;;;;;8225441;28;20022;-59
2024/01/16 05:08:30;;;;;;;5.13;2.85;;;;;;;;;;8218974;28;20025;-60
2024/01/16 05:12:30;;;;;;;6.50;3.33;;;;;;;;;;8214127;28;20032;-58
2024/01/16 05:16:31;;;;;;;6.40;3.63;;;;;;;;;;8218216;28;20037;-60
2024/01/16 05:20:31;;;;;;;9.43;3.17;;;;;;;;;;8221378;28;20144;-59
2024/01/16 05:24:31;;;;;;;7.53;3.90;;;;;;;;;;8219524;28;20701;-58
2024/01/16 05:28:31;;;;;;;10.05;3.63;;;;;;;;;;8217084;28;20262;-64
2024/01/16 05:32:31;;;;;;;5.55;3.70;;;;;;;;;;8213455;28;20455;-60
2024/01/16 05:36:31;;;;;;;6.78;3.97;;;;;;;;;;8213948;28;20080;-58
2024/01/16 05:40:32;;;;;;;6.75;3.97;;;;;;;;;;8216255;28;20425;-58
2024/01/16 05:44:32;;;;;;;7.45;3.60;;;;;;;;;;8216024;28;20328;-58
2024/01/16 05:48:32;;;;;;;10.93;4.32;;;;;;;;;;8216047;28;20042;-59
2024/01/16 05:52:32;;;;;;;7.73;3.90;;;;;;;;;;8215830;28;20722;-61
2024/01/16 05:56:34;;;;;;;10.35;4.82;;;;;;;;;;8215810;28;20317;-60
2024/01/16 06:00:34;;;;;;;8.90;4.22;;;;;;;;;;8217164;28;20852;-59
2024/01/16 06:04:34;;;;;;;10.05;4.07;;;;;;;;;;8213186;28;20556;-58
2024/01/16 06:08:35;;;;;;;8.77;4.80;;;;;;;;;;8216927;28;20030;-59
2024/01/16 06:12:35;;;;;;;7.00;4.30;;;;;;;;;;8215856;28;20285;-60
2024/01/16 06:16:35;;;;;;;6.68;3.90;;;;;;;;;;8212698;28;20045;-59
2024/01/16 06:20:35;;;;;;;8.85;4.15;;;;;;;;;;8213856;28;20049;-60
2024/01/16 06:24:36;;;;;;;8.80;4.32;;;;;;;;;;8210941;28;20034;-59
2024/01/16 06:28:36;;;;;;;7.25;3.83;;;;;;;;;;8213651;28;20022;-59
2024/01/16 06:32:37;;;;;;;8.68;3.90;;;;;;;;;;8214521;28;20397;-59
2024/01/16 06:36:37;;;;;;;8.65;3.72;;;;;;;;;;8215978;28;20089;-59
2024/01/16 06:40:37;;;;;;;6.82;3.60;;;;;;;;;;8215564;28;20843;-60
2024/01/16 06:44:37;;;;;;;5.75;3.05;;;;;;;;;;8213998;28;20025;-60
2024/01/16 06:48:38;;;;;;;9.90;3.07;;;;;;;;;;8217432;28;20451;-58
2024/01/16 06:52:38;;;;;;;3.42;2.60;;;;;;;;;;8213029;28;20272;-58
2024/01/16 06:56:38;;;;;;;10.20;3.15;;;;;;;;;;8217701;28;20327;-57
2024/01/16 07:00:41;;;;;;;5.85;2.42;;;;;;;;;;8211798;28;20469;-58
2024/01/16 07:04:41;;;;;;;10.07;2.70;;;;;;;;;;8212023;28;20034;-57
2024/01/16 07:08:42;;;;;;;8.48;2.95;;;;;;;;;;8214305;28;20030;-59
2024/01/16 07:12:42;;;;;;;8.90;3.60;;;;;;;;;;8213213;28;20211;-59
2024/01/16 07:16:43;;;;;;;6.15;3.33;;;;;;;;;;8215916;28;20048;-59
2024/01/16 07:20:43;;;;;;;6.35;2.97;;;;;;;;;;8213856;28;20614;-58
2024/01/16 07:24:43;;;;;;;5.95;2.95;;;;;;;;;;8213392;28;20518;-58
2024/01/16 07:28:43;;;;;;;7.85;3.03;;;;;;;;;;8214392;28;20609;-60
2024/01/16 07:32:44;;;;;;;8.00;2.87;;;;;;;;;;8214322;28;20489;-59
2024/01/16 07:36:44;;;;;;;8.30;2.85;;;;;;;;;;8210022;28;20928;-58
2024/01/16 07:40:44;;;;;;;10.18;3.33;;;;;;;;;;8211769;28;20117;-58
2024/01/16 07:44:44;;;;;;;5.60;2.88;;;;;;;;;;8212762;28;20080;-58
2024/01/16 07:48:45;;;;;;;5.82;2.97;;;;;;;;;;8216437;28;20065;-59
2024/01/16 07:52:45;;;;;;;8.52;3.10;;;;;;;;;;8213970;28;20573;-59
2024/01/16 07:56:45;;;;;;;6.50;2.70;;;;;;;;;;8216020;28;20224;-59
2024/01/16 08:00:46;;;;;;;9.35;2.70;;;;;;;;;;8211401;28;20056;-59
2024/01/16 08:04:46;;;;;;;7.20;2.22;;;;;;;;;;8214876;28;20022;-59
2024/01/16 08:08:46;;;;;;;4.95;2.35;;;;;;;;;;8214853;28;20033;-58
2024/01/16 08:12:46;;;;;;;5.70;2.17;;;;;;;;;;8214792;28;20061;-58
2024/01/16 08:16:46;;;;;;;10.35;2.63;;;;;;;;;;8214515;28;20033;-57
2024/01/16 08:20:46;;;;;;;9.60;2.60;;;;;;;;;;8216903;28;20201;-58
2024/01/16 08:24:47;;;;;;;4.95;1.80;;;;;;;;;;8215892;28;20057;-58
2024/01/16 08:28:47;;;;;;;3.88;1.70;;;;;;;;;;8214192;28;20035;-58
2024/01/16 08:32:47;;;;;;;3.35;2.00;;;;;;;;;;8215257;28;20045;-58
2024/01/16 08:36:47;;;;;;;6.55;2.20;;;;;;;;;;8215156;28;20753;-57
2024/01/16 08:40:48;;;;;;;4.68;2.25;;;;;;;;;;8213239;28;20124;-58
2024/01/16 08:44:49;;;;;;;5.13;1.65;;;;;;;;;;8212880;28;20030;-59
2024/01/16 08:48:49;;;;;;;4.20;1.63;;;;;;;;;;8213142;28;20503;-59
2024/01/16 08:52:50;;;;;;;4.25;1.60;;;;;;;;;;8219984;28;20030;-60
2024/01/16 08:56:50;;;;;;;3.30;1.80;;;;;;;;;;8216440;28;20665;-60
2024/01/16 09:00:50;;;;;;;5.65;1.83;;;;;;;;;;8210305;28;20040;-60
2024/01/16 09:04:50;;;;;;;3.20;2.20;;;;;;;;;;8217340;28;20343;-59
2024/01/16 09:08:51;;;;;;;11.35;2.40;;;;;;;;;;8211601;28;20029;-59
2024/01/16 09:12:51;;;;;;;5.80;1.73;;;;;;;;;;8216109;28;20073;-60
2024/01/16 09:16:53;;;;;;;9.23;2.60;;;;;;;;;;8214713;28;20912;-59
2024/01/16 09:20:54;;;;;;;5.15;2.30;;;;;;;;;;8216279;28;20147;-59
2024/01/16 09:24:54;;;;;;;6.68;2.72;;;;;;;;;;8215626;28;20026;-58
2024/01/16 09:28:54;;;;;;;11.75;7.30;;;;;;;;;;8218863;28;22892;-59
2024/01/16 09:32:55;;;;;;;6.97;3.05;;;;;;;;;;8215216;28;20135;-60
2024/01/16 09:36:59;;;;;;;7.75;3.17;;;;;;;;;;8218330;28;20157;-59
2024/01/16 09:40:59;;;;;;;4.68;2.45;;;;;;;;;;8214780;28;20026;-60
2024/01/16 09:45:00;;;;;;;6.28;2.35;;;;;;;;;;8214708;28;20145;-59
2024/01/16 09:49:02;;;;;;;5.75;2.35;;;;;;;;;;8218356;28;20297;-59
2024/01/16 09:53:02;;;;;;;8.27;2.72;;;;;;;;;;8231147;28;20057;-60
2024/01/16 09:57:05;;;;;;;8.60;2.45;;;;;;;;;;8227436;28;20040;-59
2024/01/16 10:01:05;;;;;;;4.22;2.42;;;;;;;;;;8227576;28;20120;-59
2024/01/16 10:05:08;;;;;;;7.68;2.33;;;;;;;;;;8226852;28;20026;-59
2024/01/16 10:09:12;;;;;;;5.43;2.50;;;;;;;;;;8225141;28;20101;-60
2024/01/16 10:13:12;;;;;;;6.10;2.03;;;;;;;;;;8228086;28;20033;-60
2024/01/16 10:17:15;;;;;;;4.15;2.03;;;;;;;;;;8225640;28;20129;-60
2024/01/16 10:21:22;;;;;;;8.73;2.30;;;;;;;;;;8232717;28;20048;-60
2024/01/16 10:25:22;;;;;;;4.78;2.22;;;;;;;;;;8227088;28;20026;-60
2024/01/16 10:29:22;;;;;;;7.78;2.22;;;;;;;;;;8227542;28;20018;-59
2024/01/16 10:33:26;;;;;;;4.35;2.20;;;;;;;;;;8230500;28;20039;-60
2024/01/16 10:37:26;;;;;;;7.80;2.60;;;;;;;;;;8235527;28;20041;-61
2024/01/16 10:41:27;;;;;;;8.07;2.45;;;;;;;;;;8228065;28;20030;-60
2024/01/16 10:45:27;;;;;;;7.05;1.98;;;;;;;;;;8230055;28;20108;-60
2024/01/16 10:49:27;;;;;;;5.05;2.10;;;;;;;;;;8227484;28;20536;-60
2024/01/16 10:53:30;;;;;;;10.93;2.28;;;;;;;;;;8233577;28;20026;-60
2024/01/16 10:57:31;;;;;;;5.65;2.15;;;;;;;;;;8230188;28;20361;-59
2024/01/16 11:01:32;;;;;;;4.43;2.28;;;;;;;;;;8227546;28;21088;-60
2024/01/16 11:05:33;;;;;;;5.03;2.00;;;;;;;;;;8232792;28;20878;-59
2024/01/16 11:09:34;;;;;;;10.70;2.30;;;;;;;;;;8227383;28;20037;-60
2024/01/16 11:13:35;;;;;;;5.25;2.10;;;;;;;;;;8234024;28;20040;-59
2024/01/16 11:17:36;;;;;;;4.78;1.85;;;;;;;;;;8225421;28;20048;-60
2024/01/16 11:21:36;;;;;;;7.65;1.83;;;;;;;;;;8224829;28;20884;-59
2024/01/16 11:25:36;;;;;;;3.90;1.50;;;;;;;;;;8228541;28;20034;-60
2024/01/16 11:29:37;;;;;;;4.65;1.90;;;;;;;;;;8222739;28;20091;-59
2024/01/16 11:33:37;;;;;;;1.95;1.33;;;;;;;;;;8225174;28;20123;-61
2024/01/16 11:37:39;;;;;;;4.57;1.80;;;;;;;;;;8224166;28;20058;-59
2024/01/16 11:41:52;;;;;;;4.55;2.40;;;;;;;;;;8221130;28;20479;-60
2024/01/16 11:45:53;;;;;;;3.80;2.13;;;;;;;;;;8225896;28;20100;-60
2024/01/16 11:50:08;;;;;;;7.00;2.50;;;;;;;;;;8224128;28;22784;-60
2024/01/16 11:54:08;;;;;;;6.82;3.28;;;;;;;;;;8226285;28;20049;-60
2024/01/16 11:58:20;;;;;;;5.40;3.20;;;;;;;;;;8224108;28;20050;-60
2024/01/16 12:02:24;;;;;;;6.47;2.60;;;;;;;;;;8227637;28;20516;-60
2024/01/16 12:06:25;;;;;;;7.13;3.53;;;;;;;;;;8223263;28;20034;-60
2024/01/16 12:10:25;;;;;;;4.65;2.50;;;;;;;;;;8223084;28;20046;-60
2024/01/16 12:14:25;;;;;;;5.22;2.53;;;;;;;;;;8225282;28;20041;-60
2024/01/16 12:18:25;;;;;;;4.82;1.85;;;;;;;;;;8224888;28;20038;-60
2024/01/16 12:22:26;;;;;;;4.25;1.85;;;;;;;;;;8225681;28;20023;-60
2024/01/16 12:26:26;;;;;;;2.33;1.15;;;;;;;;;;8225134;28;20429;-60
2024/01/16 12:30:28;;;;;;;2.88;1.60;;;;;;;;;;8224791;28;20038;-59
2024/01/16 12:34:28;;;;;;;5.05;1.45;;;;;;;;;;8225641;28;20029;-60
2024/01/16 12:38:28;;;;;;;4.97;1.50;;;;;;;;;;8224324;28;20032;-59
2024/01/16 12:42:29;;;;;;;6.78;1.92;;;;;;;;;;8219738;28;20022;-59
2024/01/16 12:46:29;;;;;;;4.65;1.30;;;;;;;;;;8222292;28;20053;-60
2024/01/16 12:50:30;;;;;;;3.03;1.70;;;;;;;;;;8222813;28;20526;-59
2024/01/16 12:54:31;;;;;;;3.78;1.75;;;;;;;;;;8222359;28;20278;-63
2024/01/16 12:58:35;;;;;;;4.80;1.80;;;;;;;;;;8228457;28;20468;-62
2024/01/16 13:02:35;;;;;;;2.83;1.90;;;;;;;;;;8228863;28;21009;-60
2024/01/16 13:06:36;;;;;;;3.22;1.73;;;;;;;;;;8229779;28;20577;-60
2024/01/16 13:10:37;;;;;;;2.70;1.70;;;;;;;;;;8229306;28;20045;-60
2024/01/16 13:14:37;;;;;;;4.30;1.98;;;;;;;;;;8231038;28;20057;-60
2024/01/16 13:18:38;;;;;;;3.38;2.00;;;;;;;;;;8228034;28;20077;-59
2024/01/16 13:22:38;;;;;;;5.55;2.20;;;;;;;;;;8232903;28;20431;-59
2024/01/16 13:26:39;;;;;;;3.65;2.13;;;;;;;;;;8228270;28;20026;-60
2024/01/16 13:30:42;;;;;;;5.45;2.28;;;;;;;;;;8229165;28;20586;-59
2024/01/16 13:34:48;;;;;;;2.70;1.67;;;;;;;;;;8228847;28;20120;-59
2024/01/16 13:38:49;;;;;;;5.35;2.33;;;;;;;;;;8228334;28;20060;-59
2024/01/16 13:42:49;;;;;;;4.00;2.00;;;;;;;;;;8223519;28;20034;-60
2024/01/16 13:46:49;;;;;;;4.80;3.40;;;;;;;;;;8218405;28;20499;-61
2024/01/16 13:50:50;;;;;;;5.13;3.17;;;;;;;;;;8221980;28;20029;-60
2024/01/16 13:54:50;;;;;;;8.07;2.90;;;;;;;;;;8223880;28;20026;-60
2024/01/16 13:58:50;;;;;;;4.95;3.00;;;;;;;;;;8222284;28;20165;-60
2024/01/16 14:02:51;;;;;;;7.97;2.75;;;;;;;;;;8223163;28;20490;-60
2024/01/16 14:06:51;;;;;;;5.32;3.30;;;;;;;;;;8223607;28;20767;-61
2024/01/16 14:10:51;;;;;;;16.25;8.27;;;;;;;;;;8216753;28;20115;-61
2024/01/16 14:14:52;;;;;;;5.15;2.60;;;;;;;;;;8218053;28;20034;-61
2024/01/16 14:18:52;;;;;;;5.07;2.22;;;;;;;;;;8217976;28;21623;-61
2024/01/16 14:22:52;;;;;;;8.18;2.30;;;;;;;;;;8216691;28;21994;-60
2024/01/16 14:26:52;;;;;;;5.93;2.65;;;;;;;;;;8217812;28;20581;-60
2024/01/16 14:30:53;;;;;;;5.72;2.30;;;;;;;;;;8214995;28;20949;-60
2024/01/16 14:34:53;;;;;;;6.07;2.30;;;;;;;;;;8222188;28;20220;-60
2024/01/16 14:38:53;;;;;;;5.57;2.42;;;;;;;;;;8223594;28;20036;-59
2024/01/16 14:42:54;;;;;;;5.90;2.10;;;;;;;;;;8220260;28;22062;-60
2024/01/16 14:46:54;;;;;;;5.35;2.38;;;;;;;;;;8221623;28;23187;-59
2024/01/16 14:50:55;;;;;;;3.38;2.20;;;;;;;;;;8229614;28;20096;-60
2024/01/16 14:54:55;;;;;;;3.58;1.92;;;;;;;;;;8229565;28;20158;-59
2024/01/16 14:58:56;;;;;;;9.60;3.67;;;;;;;;;;8228087;28;20163;-60
2024/01/16 15:02:56;;;;;;;6.25;3.17;;;;;;;;;;8226024;28;21958;-60
2024/01/16 15:06:57;;;;;;;10.88;3.88;;;;;;;;;;8223380;28;20030;-61
2024/01/16 15:10:59;;;;;;;6.05;3.05;;;;;;;;;;8229975;28;20033;-59
2024/01/16 15:15:00;;;;;;;5.28;2.60;;;;;;;;;;8228751;28;20125;-60
2024/01/16 15:19:00;;;;;;;5.97;2.60;;;;;;;;;;8226793;28;20108;-59
2024/01/16 15:23:01;;;;;;;6.28;2.90;;;;;;;;;;8224787;28;20533;-59
2024/01/16 15:27:03;;;;;;;11.98;3.90;;;;;;;;;;8223203;28;20598;-59
2024/01/16 15:31:06;;;;;;;6.93;3.60;;;;;;;;;;8224664;28;20042;-59
2024/01/16 15:35:07;;;;;;;7.43;3.70;;;;;;;;;;8220746;28;20438;-59
2024/01/16 15:39:07;;;;;;;7.80;3.50;;;;;;;;;;8223271;28;20038;-59
2024/01/16 15:43:07;;;;;;;4.97;2.85;;;;;;;;;;8222312;28;20022;-59
2024/01/16 15:47:08;;;;;;;5.10;2.83;;;;;;;;;;8228352;28;20564;-59
2024/01/16 15:51:08;;;;;;;4.35;2.85;;;;;;;;;;8222642;28;20307;-59
2024/01/16 15:55:10;;;;;;;7.13;2.95;;;;;;;;;;8223093;28;20030;-59
2024/01/16 15:59:11;;;;;;;7.00;3.20;;;;;;;;;;8224708;28;20289;-59
2024/01/16 16:03:11;;;;;;;6.32;2.95;;;;;;;;;;8227396;28;20038;-58
2024/01/16 16:07:11;;;;;;;8.77;4.55;;;;;;;;;;8225154;28;20144;-58
2024/01/16 16:11:11;;;;;;;8.35;3.40;;;;;;;;;;8228400;28;20029;-58
2024/01/16 16:15:11;;;;;;;7.10;3.05;;;;;;;;;;8226098;28;20026;-58
2024/01/16 16:19:12;;;;;;;3.88;2.55;;;;;;;;;;8229217;28;20026;-59
2024/01/16 16:23:12;;;;;;;4.13;3.10;;;;;;;;;;8237168;28;20026;-59
2024/01/16 16:27:23;;;;;;;6.55;3.45;;;;;;;;;;8234365;28;20113;-59
2024/01/16 16:31:23;;;;;;;8.13;3.40;;;;;;;;;;8223852;28;20042;-59
2024/01/16 16:35:23;;;;;;;6.22;3.65;;;;;;;;;;8232247;28;20529;-58
2024/01/16 16:39:24;;;;;;;5.55;3.55;;;;;;;;;;8229929;28;20061;-59
2024/01/16 16:43:24;;;;;;;8.87;4.57;;;;;;;;;;8230089;28;20057;-58
2024/01/16 16:47:24;;;;;;;7.65;3.67;;;;;;;;;;8220215;28;20750;-59
2024/01/16 16:51:27;;;;;;;8.15;4.07;;;;;;;;;;8218739;28;20050;-58
2024/01/16 16:55:28;;;;;;;7.90;3.80;;;;;;;;;;8221427;28;20281;-57
2024/01/16 16:59:28;;;;;;;6.18;3.72;;;;;;;;;;8223940;28;20037;-59
2024/01/16 17:03:28;;;;;;;7.05;3.97;;;;;;;;;;8216219;28;20039;-59
2024/01/16 17:07:28;;;;;;;8.85;4.35;;;;;;;;;;8217967;28;20465;-59
2024/01/16 17:11:29;;;;;;;8.02;4.28;;;;;;;;;;8219310;28;20034;-58
2024/01/16 17:15:30;;;;;;;11.90;4.20;;;;;;;;;;8219258;28;20184;-57
2024/01/16 17:19:30;;;;;;;6.75;3.20;;;;;;;;;;8221994;28;19918;-60
2024/01/16 17:23:31;;;;;;;8.25;3.58;;;;;;;;;;8231265;28;20040;-59
2024/01/16 17:27:32;;;;;;;13.60;4.35;;;;;;;;;;8235545;28;20435;-60
2024/01/16 17:31:32;;;;;;;15.13;5.43;;;;;;;;;;8232286;28;20030;-59
2024/01/16 17:35:33;;;;;;;10.20;4.33;;;;;;;;;;8229587;28;20498;-58
2024/01/16 17:39:33;;;;;;;52.70;17.25;;;;;;;;;;8230023;28;20281;-60
2024/01/16 17:43:33;;;;;;;25.67;9.15;;;;;;;;;;8228533;28;20034;-59
2024/01/16 17:47:34;;;;;;;24.63;9.65;;;;;;;;;;8238683;28;20039;-60
2024/01/16 17:51:34;;;;;;;19.90;7.63;;;;;;;;;;8229717;28;20029;-59
2024/01/16 17:55:35;;;;;;;23.17;9.27;;;;;;;;;;8232314;28;20028;-60
2024/01/16 17:59:38;;;;;;;12.18;6.13;;;;;;;;;;8231254;28;20061;-60
2024/01/16 18:03:40;;;;;;;16.50;6.85;;;;;;;;;;8233241;28;20076;-60
2024/01/16 18:07:40;;;;;;;19.63;7.82;;;;;;;;;;8232517;28;20036;-60
2024/01/16 18:11:57;;;;;;;16.42;7.75;;;;;;;;;;8231316;28;20030;-60
2024/01/16 18:15:58;;;;;;;7.88;3.78;;;;;;;;;;8230946;28;20042;-59
2024/01/16 18:20:00;;;;;;;5.28;3.00;;;;;;;;;;8248441;28;20092;-60
2024/01/16 18:24:00;;;;;;;5.95;3.85;;;;;;;;;;8226760;28;20015;-60
2024/01/16 18:28:00;;;;;;;5.90;3.55;;;;;;;;;;8227605;28;20029;-60
2024/01/16 18:32:02;;;;;;;12.98;7.05;;;;;;;;;;8228566;28;20029;-60
2024/01/16 18:36:03;;;;;;;17.10;7.25;;;;;;;;;;8231340;28;20067;-60
2024/01/16 18:40:03;;;;;;;12.57;6.40;;;;;;;;;;8227381;28;20065;-58
2024/01/16 18:44:06;;;;;;;7.78;4.82;;;;;;;;;;8223199;28;20677;-59
2024/01/16 18:48:06;;;;;;;8.65;5.50;;;;;;;;;;8215146;28;20069;-59
2024/01/16 18:52:07;;;;;;;9.68;4.80;;;;;;;;;;8214289;28;20521;-59
2024/01/16 18:56:07;;;;;;;7.50;4.22;;;;;;;;;;8213253;28;20068;-59
2024/01/16 19:00:15;;;;;;;8.38;4.75;;;;;;;;;;8207166;28;20045;-59
2024/01/16 19:04:17;;;;;;;5.93;4.22;;;;;;;;;;8207570;28;20025;-59
2024/01/16 19:08:23;;;;;;;8.00;5.03;;;;;;;;;;8206609;28;20029;-59
2024/01/16 19:12:23;;;;;;;8.98;4.70;;;;;;;;;;8208160;28;20029;-58
2024/01/16 19:16:23;;;;;;;7.55;4.72;;;;;;;;;;8206093;28;20157;-59
2024/01/16 19:20:24;;;;;;;11.23;4.65;;;;;;;;;;8202364;28;20542;-59
2024/01/16 19:24:26;;;;;;;12.30;5.70;;;;;;;;;;8206881;28;20132;-58
2024/01/16 19:28:28;;;;;;;15.52;7.65;;;;;;;;;;8206425;28;20392;-58
2024/01/16 19:32:28;;;;;;;16.52;7.45;;;;;;;;;;8203934;28;20054;-59
2024/01/16 19:36:28;;;;;;;12.13;6.30;;;;;;;;;;8207158;28;20578;-60
2024/01/16 19:40:28;;;;;;;11.35;5.72;;;;;;;;;;8203732;28;20251;-60
2024/01/16 19:44:29;;;;;;;10.05;4.90;;;;;;;;;;8208930;28;20514;-59
2024/01/16 19:48:30;;;;;;;7.28;3.67;;;;;;;;;;8205673;28;20150;-59
2024/01/16 19:52:31;;;;;;;5.68;3.97;;;;;;;;;;8206446;28;20052;-59
2024/01/16 19:56:32;;;;;;;6.18;3.80;;;;;;;;;;8210154;28;20408;-60
2024/01/16 20:00:32;;;;;;;4.18;3.05;;;;;;;;;;8205030;28;20029;-59
2024/01/16 20:04:33;;;;;;;7.73;4.10;;;;;;;;;;8206050;28;20254;-59
2024/01/16 20:08:33;;;;;;;9.00;4.85;;;;;;;;;;8205447;28;20825;-59
2024/01/16 20:12:33;;;;;;;10.68;4.00;;;;;;;;;;8207671;28;20721;-59
2024/01/16 20:16:34;;;;;;;7.05;3.72;;;;;;;;;;8206872;28;20620;-60
2024/01/16 20:20:34;;;;;;;5.30;3.97;;;;;;;;;;8206255;28;20317;-61
2024/01/16 20:24:36;;;;;;;5.05;3.58;;;;;;;;;;8200229;28;20084;-60
2024/01/16 20:28:36;;;;;;;4.57;3.25;;;;;;;;;;8208719;28;20456;-60
2024/01/16 20:32:39;;;;;;;5.80;3.10;;;;;;;;;;8212319;28;20043;-61
2024/01/16 20:36:39;;;;;;;6.20;3.33;;;;;;;;;;8217574;28;20044;-59
2024/01/16 20:40:41;;;;;;;6.13;3.47;;;;;;;;;;8217673;28;20018;-60
2024/01/16 20:44:42;;;;;;;7.57;3.20;;;;;;;;;;8231663;28;20380;-60
2024/01/16 20:48:42;;;;;;;5.85;3.13;;;;;;;;;;8229784;28;20471;-60
2024/01/16 20:52:42;;;;;;;6.43;3.17;;;;;;;;;;8229985;28;20026;-59
2024/01/16 20:56:43;;;;;;;5.77;3.40;;;;;;;;;;8219827;28;20612;-60
2024/01/16 21:00:45;;;;;;;5.45;3.00;;;;;;;;;;8212594;28;20291;-61
2024/01/16 21:04:46;;;;;;;4.97;3.15;;;;;;;;;;8228295;28;20041;-59
2024/01/16 21:08:46;;;;;;;7.20;3.55;;;;;;;;;;8227320;28;20034;-60
2024/01/16 21:12:46;;;;;;;5.78;3.05;;;;;;;;;;8223811;28;20026;-60
2024/01/16 21:16:47;;;;;;;8.65;3.63;;;;;;;;;;8218594;28;20046;-59
2024/01/16 21:20:47;;;;;;;4.72;3.20;;;;;;;;;;8220389;28;20026;-59
2024/01/16 21:24:48;;;;;;;6.85;3.53;;;;;;;;;;8225518;28;20014;-59
2024/01/16 21:28:48;;;;;;;5.82;3.30;;;;;;;;;;8223117;28;20041;-60
2024/01/16 21:32:49;;;;;;;7.38;3.33;;;;;;;;;;8219136;28;20046;-60
2024/01/16 21:36:51;;;;;;;4.32;3.10;;;;;;;;;;8223934;28;20037;-61
2024/01/16 21:40:51;;;;;;;6.00;3.30;;;;;;;;;;8221051;28;20018;-60
2024/01/16 21:44:53;;;;;;;6.93;3.75;;;;;;;;;;8219836;28;21352;-60
2024/01/16 21:48:53;;;;;;;4.00;3.10;;;;;;;;;;8210618;28;21074;-60
2024/01/16 21:52:53;;;;;;;8.65;3.05;;;;;;;;;;8222874;28;20037;-60
2024/01/16 21:56:53;;;;;;;4.72;2.70;;;;;;;;;;8229496;28;20452;-60
2024/01/16 22:00:55;;;;;;;6.00;3.47;;;;;;;;;;8225370;28;20045;-59
2024/01/16 22:04:55;;;;;;;4.63;3.22;;;;;;;;;;8211934;28;21153;-59
2024/01/16 22:08:57;;;;;;;6.63;3.53;;;;;;;;;;8213364;28;20800;-59
2024/01/16 22:12:57;;;;;;;5.60;3.00;;;;;;;;;;8213408;28;20026;-59
2024/01/16 22:16:58;;;;;;;6.85;3.20;;;;;;;;;;8209708;28;20034;-59
2024/01/16 22:21:01;;;;;;;7.95;3.50;;;;;;;;;;8210726;28;20022;-59
2024/01/16 22:25:01;;;;;;;6.35;3.03;;;;;;;;;;8207383;28;20048;-59
2024/01/16 22:29:01;;;;;;;5.27;3.13;;;;;;;;;;8204657;28;20022;-60
2024/01/16 22:33:03;;;;;;;4.25;2.90;;;;;;;;;;8204872;28;20291;-60
2024/01/16 22:37:06;;;;;;;4.55;3.63;;;;;;;;;;8206218;28;20088;-60
2024/01/16 22:41:06;;;;;;;7.90;3.78;;;;;;;;;;8208011;28;20022;-60
2024/01/16 22:45:06;;;;;;;8.20;3.90;;;;;;;;;;8208173;28;20546;-59
2024/01/16 22:49:07;;;;;;;7.15;4.07;;;;;;;;;;8210276;28;20365;-60
2024/01/16 22:53:07;;;;;;;4.50;3.22;;;;;;;;;;8211323;28;20030;-59
2024/01/16 22:57:08;;;;;;;5.25;3.28;;;;;;;;;;8217863;28;20034;-59
2024/01/16 23:01:08;;;;;;;6.77;3.47;;;;;;;;;;8222191;28;20486;-59
2024/01/16 23:05:08;;;;;;;4.32;3.25;;;;;;;;;;8223094;28;20287;-59
2024/01/16 23:09:09;;;;;;;4.63;3.30;;;;;;;;;;8223961;28;20036;-59
2024/01/16 23:13:09;;;;;;;4.78;3.13;;;;;;;;;;8222179;28;20395;-59
2024/01/16 23:17:11;;;;;;;3.88;2.67;;;;;;;;;;8222400;28;20041;-59
2024/01/16 23:21:16;;;;;;;5.78;3.20;;;;;;;;;;8221248;28;20712;-59
2024/01/16 23:25:17;;;;;;;4.55;2.72;;;;;;;;;;8220247;28;20344;-59
2024/01/16 23:29:17;;;;;;;7.22;3.25;;;;;;;;;;8216112;28;20029;-60
2024/01/16 23:33:18;;;;;;;6.60;3.50;;;;;;;;;;8223395;28;20507;-59
2024/01/16 23:37:23;;;;;;;3.38;2.40;;;;;;;;;;8222721;28;20030;-59
2024/01/16 23:41:24;;;;;;;4.63;2.80;;;;;;;;;;8219848;28;20024;-59
2024/01/16 23:45:24;;;;;;;5.10;2.47;;;;;;;;;;8217076;28;20035;-59
2024/01/16 23:49:25;;;;;;;6.63;2.70;;;;;;;;;;8223571;28;20104;-60
2024/01/16 23:53:26;;;;;;;6.25;3.03;;;;;;;;;;8225713;28;20769;-60
2024/01/16 23:57:26;;;;;;;3.15;2.60;;;;;;;;;;8224472;28;20116;-60
